Historyczne dane pomiarowe

Dodano dane terminowe – wersja testowa.

Dane z okresu 1951-2019

Wersja bazy: 1.34 [2019-03-16, lista zmian], aktualizacja planowana na 2019-04-15

Dane meteo z obszaru Polski uzyskane na podstawie danych udostępnionych przez Instytut Meteorologii i Gospodarki Wodnej – Państwowy Instytut Badawczy.

 

Wybierz Datę:    

       

TemperaturaWilgotnośćWiatrCiśnienieOpadyŚniegCzas trwania zjawisk
 Stacja t tx tn tng RH VA  wxwx mslp ppp RRR   cm mm wxwxwxwxwxwxwx
1994-08-14 10.9 16.0 9.2 7.6 87.5- 6.7 5.7---- 6.5------------
1994-08-13 15.0 20.0 11.3 10.5 82.0- 7.3 6.3---- 4.6------------
1994-08-12 17.5 23.5 11.1 8.1 73.5- 3.7 2.3---- 0.0------------
1994-08-11 17.8 21.2 10.3 10.3 67.8- 4.3 3.0---- 0.0------------
1994-08-10 16.8 23.3 10.0 9.1 70.5- 2.7 2.3---- 0.0------------
1994-08-09 16.8 22.0 13.2 8.6 81.8- 6.3 2.7---- 11.5------------
1994-08-08 18.7 22.0 12.4 10.0 68.0- 4.7 1.3---- 0.0------------
1994-08-07 17.8 22.1 11.0 10.0 69.0- 1.7 3.7---- 0.0------------
1994-08-06 19.7 27.6 11.0 9.7 68.8- 4.0 3.0---- 2.3------------
1994-08-05 19.7 27.0 11.0 10.4 63.8- 2.3 2.0---- 0.0------------
1994-08-04 18.8 24.0 13.9 9.8 71.3- 2.7 2.0---- 0.0------------
1994-08-03 17.8 21.5 14.8 14.8 83.5- 6.7 2.3---- 1.4------------
1994-08-02 21.5 31.0 17.0 13.6 72.0- 3.7 2.0---- 3.8------------
1994-08-01 24.8 31.6 19.9 16.7 56.5- 4.0 2.7---- 0.0------------
1994-07-31 23.6 30.9 16.0 9.5 50.8- 4.3 2.7---- 0.0------------
1994-07-30 24.7 31.0 15.0 11.3 48.3- 4.0 1.3---- 0.0------------
1994-07-29 23.9 31.0 17.2 11.5 48.0- 3.0 1.3---- 0.0------------
1994-07-28 22.5 30.5 13.4 9.5 56.8- 3.7 2.3---- 0.0------------
1994-07-27 22.6 31.0 11.7 8.6 49.3- 2.7 1.3---- 0.0------------
1994-07-26 22.1 28.0 11.2 8.1 51.5- 0.7 2.3---- 0.0------------
1994-07-25 20.4 28.0 11.0 9.5 52.0- 0.0 2.7---- 0.0------------
1994-07-24 19.8 27.5 10.9 6.2 57.3- 0.0 3.0---- 0.0------------
1994-07-23 17.1 24.0 6.8 3.8 57.8- 0.7 2.3---- 0.0------------
1994-07-22 15.5 20.0 6.0 2.8 59.8- 0.0 3.3---- 0.0------------
1994-07-21 15.5 24.0 4.2 3.9 57.8- 0.7 2.7---- 0.0------------
1994-07-20 14.0 18.2 5.0 1.4 60.0- 0.7 2.7---- 0.0------------
1994-07-19 13.6 17.1 6.0 3.0 58.8- 1.3 4.0---- 0.0------------
1994-07-18 15.4 19.0 6.8 4.2 51.5- 1.7 3.3---- 0.0------------
1994-07-17 16.4 20.0 11.0 10.4 63.5- 7.7 2.3---- 0.0------------
1994-07-16 16.6 25.0 12.2 12.0 71.5- 7.0 3.7---- 0.0------------
1994-07-15 19.0 28.0 13.0 10.5 61.8- 4.0 3.7---- 0.0------------
1994-07-14 23.2 27.0 18.0 10.2 60.8- 3.3 2.3---- 0.2------------
1994-07-13 21.9 26.0 13.8 10.2 51.3- 3.3 3.0---- 0.0------------
1994-07-12 21.4 27.0 15.1 7.1 49.5- 1.3 4.0---- 0.0------------
1994-07-11 17.4 22.5 8.0 4.7 58.0- 0.0 3.3---- 0.0------------
1994-07-10 16.6 22.5 10.0 7.6 64.3- 0.7 2.7---- 0.0------------
1994-07-09 13.0 17.6 8.9 8.1 76.3- 7.3 2.7---- 0.0------------
1994-07-08 10.6 18.5 9.0 7.1 90.8- 8.0 2.3---- 13.3------------
1994-07-07 13.9 19.0 6.7 5.2 58.0- 1.0 5.0---- 0.0------------
1994-07-06 14.2 20.0 6.5 2.8 61.3- 1.3 3.0---- 0.0------------
1994-07-05 14.2 20.0 7.0 3.8 62.8- 3.3 3.3---- 0.0------------
1994-07-04 15.3 21.0 7.0 4.2 56.0- 0.0 4.7---- 0.0------------
1994-07-03 15.1 20.0 5.0 0.9 54.8- 2.0 3.3---- 0.0------------
1994-07-02 13.0 19.0 5.0 2.3 65.5- 1.7 3.0---- 0.0------------
1994-07-01 12.0 16.0 8.8 3.1 65.0- 3.3 2.7---- 0.0------------
1994-06-30 15.5 25.2 13.4 12.9 71.3- 4.3 4.3---- 0.0------------
1994-06-29 19.3 25.2 11.0 9.0 64.3- 1.7 4.7---- 6.5------------
1994-06-28 18.2 24.0 10.0 5.7 60.5- 1.3 2.0---- 0.0------------
1994-06-27 16.9 24.0 11.6 4.1 70.5- 4.3 4.3---- 0.0------------
1994-06-26 16.5 24.0 6.0 1.8 56.8- 1.3 4.0---- 0.0------------
1994-06-25 12.5 18.0 2.0 1.4 63.5- 0.0 2.3---- 0.0------------
1994-06-24 11.0 13.5 7.9 5.6 61.3- 2.7 5.7---- 0.0------------
1994-06-23 10.9 15.0 9.9 6.6 62.5- 4.0 12.3---- 0.0------------
1994-06-22 14.2 16.5 11.9 10.5 71.5- 7.7 7.0---- 0.0------------
1994-06-21 10.8 16.5 3.1 1.5 66.0- 3.7 3.7---- 0.2------------
1994-06-20 10.3 12.5 8.9 6.6 65.5- 2.7 6.7---- 0.0------------
1994-06-19 9.4 12.5 6.9 5.7 85.8- 8.0 6.0---- 0.0------------
1994-06-18 8.0 12.2 2.0 -1.6 77.0- 6.0 4.0---- 5.0------------
1994-06-17 4.7 8.5 3.4 -0.1 74.8- 4.0 6.0---- 3.2------------
1994-06-16 7.2 11.0 5.9 4.0 77.0- 5.3 5.3---- 2.3------------
226.3 ms

 

Źródłem pochodzenia danych jest Instytut Meteorologii i Gospodarki Wodnej – Państwowy Instytut Badawczy. Dane Instytutu Meteorologii i Gospodarki Wodnej – Państwowego Instytutu Badawczego zostały przetworzone.

Dane źródłowe można odnaleźć na stronie https://dane.imgw.pl